createdAt,value
2022-11-07T09:38:26.259Z,82.27
2022-11-07T09:41:17.856Z,81.65
2022-11-07T09:43:50.173Z,82.16
2022-11-07T09:46:19.703Z,80.82
2022-11-07T09:48:49.460Z,80.35
2022-11-07T09:51:38.676Z,79.23
2022-11-07T09:54:25.573Z,80.44
2022-11-07T09:56:54.158Z,79.91
2022-11-07T09:59:25.395Z,78.72
2022-11-07T10:01:52.206Z,79.88
2022-11-07T10:04:26.208Z,79.33
2022-11-07T10:06:55.959Z,78.24
2022-11-07T10:09:31.356Z,78.12
2022-11-07T10:12:07.655Z,77.63
2022-11-07T10:15:07.093Z,77.41
2022-11-07T10:18:02.240Z,77.57
2022-11-07T10:21:05.461Z,78.64
2022-11-07T10:23:52.577Z,78.26
2022-11-07T10:26:22.037Z,77.77
2022-11-07T10:28:53.467Z,77.64
2022-11-07T10:31:20.104Z,76.96
2022-11-07T10:33:54.984Z,77.26
2022-11-07T10:36:25.074Z,77.54
2022-11-07T10:38:52.827Z,77.83
2022-11-07T10:41:27.570Z,77.84
2022-11-07T10:44:08.132Z,77.78
2022-11-07T10:46:41.766Z,77.10
2022-11-07T10:49:26.267Z,77.75
2022-11-07T10:51:54.394Z,78.04
2022-11-07T10:54:30.858Z,77.52
2022-11-07T10:57:10.246Z,77.51
2022-11-07T10:59:37.723Z,77.39
2022-11-07T11:02:20.666Z,77.26
2022-11-07T11:04:54.668Z,77.27
2022-11-07T11:07:28.344Z,77.66
2022-11-07T11:09:57.871Z,77.29
2022-11-07T11:12:33.337Z,77.38
2022-11-07T11:15:12.650Z,76.37
2022-11-07T11:17:40.015Z,76.86
2022-11-07T11:20:23.482Z,76.57
2022-11-07T11:22:50.087Z,77.12
2022-11-07T11:25:19.596Z,76.19
2022-11-07T11:27:49.605Z,76.00
2022-11-07T11:30:19.363Z,75.67
2022-11-07T11:32:53.349Z,74.99
2022-11-07T11:35:28.742Z,75.17
2022-11-07T11:38:20.114Z,74.93
2022-11-07T11:41:01.558Z,75.57
2022-11-07T11:43:41.469Z,75.60
2022-11-07T11:46:42.972Z,75.67
2022-11-07T11:49:18.338Z,75.75
2022-11-07T11:52:00.712Z,75.15
2022-11-07T11:54:27.350Z,75.46
2022-11-07T11:56:58.998Z,75.67
2022-11-07T11:59:44.254Z,75.47
2022-11-07T12:02:25.890Z,75.72
2022-11-07T12:05:04.478Z,75.71
2022-11-07T12:08:03.233Z,75.16
2022-11-07T12:10:44.371Z,74.72
2022-11-07T12:13:32.433Z,75.36
2022-11-07T12:16:32.703Z,75.66
2022-11-07T12:19:09.782Z,74.87
2022-11-07T12:22:31.994Z,75.47
2022-11-07T12:24:58.510Z,75.21
2022-11-07T12:27:47.895Z,74.33
2022-11-07T12:30:29.536Z,74.63
2022-11-07T12:32:59.110Z,74.62
2022-11-07T12:36:18.015Z,74.05
2022-11-07T12:39:21.411Z,73.76
2022-11-07T12:42:08.058Z,75.09
2022-11-07T12:45:21.395Z,74.77
2022-11-07T12:48:26.164Z,74.88
2022-11-07T12:51:21.002Z,74.89
2022-11-07T12:53:50.222Z,74.71
2022-11-07T12:56:31.808Z,74.28
2022-11-07T12:59:00.699Z,75.13
2022-11-07T13:01:40.867Z,75.06
2022-11-07T13:04:18.588Z,75.55
2022-11-07T13:07:19.497Z,74.74
2022-11-07T13:09:54.991Z,74.82
2022-11-07T13:12:44.721Z,74.39
2022-11-07T13:15:13.438Z,75.19
2022-11-07T13:17:46.066Z,74.41
2022-11-07T13:20:21.765Z,74.40
2022-11-07T13:22:50.655Z,74.72
2022-11-07T13:25:17.722Z,74.58
2022-11-07T13:28:04.885Z,74.07
2022-11-07T13:30:35.289Z,74.22
2022-11-07T13:33:02.884Z,74.49
2022-11-07T13:35:32.458Z,74.74
2022-11-07T13:38:14.806Z,75.29
2022-11-07T13:40:49.016Z,74.98
2022-11-07T13:43:24.271Z,74.41
2022-11-07T13:45:55.874Z,75.30
2022-11-07T13:49:06.783Z,74.20
2022-11-07T13:51:42.739Z,74.93
2022-11-07T13:54:40.355Z,75.80
2022-11-07T13:57:31.537Z,75.38
2022-11-07T14:00:14.587Z,74.17
2022-11-07T14:02:51.444Z,75.23
2022-11-07T14:05:21.125Z,75.38
2022-11-07T14:08:18.864Z,75.30
2022-11-07T14:10:48.508Z,75.68
2022-11-07T14:13:41.336Z,75.24
2022-11-07T14:16:15.572Z,75.28
2022-11-07T14:18:56.826Z,76.25
2022-11-07T14:21:28.125Z,76.22
2022-11-07T14:23:55.148Z,76.46
2022-11-07T14:26:30.856Z,76.61
2022-11-07T14:29:00.679Z,76.25
2022-11-07T14:31:32.898Z,76.27
2022-11-07T14:34:03.089Z,76.60
2022-11-07T14:36:30.502Z,76.56
2022-11-07T14:39:03.856Z,76.17
2022-11-07T14:41:30.763Z,76.51
2022-11-07T14:44:02.054Z,76.63
2022-11-07T14:46:28.833Z,76.27
2022-11-07T14:48:55.731Z,77.05
2022-11-07T14:51:26.232Z,77.31
2022-11-07T14:53:52.742Z,77.03
2022-11-07T14:56:23.805Z,76.72
2022-11-07T14:58:50.547Z,76.84
2022-11-07T15:01:34.531Z,76.64
2022-11-07T15:04:27.146Z,76.51
2022-11-07T15:06:53.704Z,77.31
2022-11-07T15:09:30.997Z,76.92
2022-11-07T15:11:59.370Z,77.15
2022-11-07T15:14:35.713Z,76.80
2022-11-07T15:17:06.041Z,77.15
2022-11-07T15:19:35.157Z,77.05
2022-11-07T15:22:04.508Z,76.81
2022-11-07T15:24:33.316Z,77.25
2022-11-07T15:27:06.251Z,77.55
2022-11-07T15:29:36.087Z,78.03
2022-11-07T15:32:15.548Z,77.64
2022-11-07T15:35:00.737Z,78.09
2022-11-07T15:37:28.957Z,78.18
2022-11-07T15:39:55.639Z,78.18
2022-11-07T15:42:22.234Z,78.48
2022-11-07T15:44:48.819Z,78.42
2022-11-07T15:47:19.323Z,78.67
2022-11-07T15:49:46.682Z,78.96
2022-11-07T15:52:13.541Z,79.20
2022-11-07T15:54:40.274Z,79.11
2022-11-07T15:57:08.179Z,78.93
2022-11-07T15:59:37.112Z,79.52
2022-11-07T16:02:04.582Z,79.72
2022-11-07T16:04:33.386Z,79.48
2022-11-07T16:07:03.254Z,79.61
2022-11-07T16:09:32.898Z,79.38
2022-11-07T16:11:59.547Z,80.06
2022-11-07T16:17:18.253Z,80.07
2022-11-07T16:19:45.083Z,80.46
2022-11-07T16:22:16.112Z,80.50
2022-11-07T16:24:42.840Z,80.66
2022-11-07T16:27:15.916Z,80.39
2022-11-07T16:29:44.242Z,80.18
2022-11-07T16:32:17.943Z,79.63
2022-11-07T16:34:45.609Z,79.95
2022-11-07T16:37:12.501Z,80.33
2022-11-07T16:39:39.115Z,80.20
2022-11-07T16:42:05.956Z,80.30
2022-11-07T16:44:32.607Z,80.30
2022-11-07T16:47:05.719Z,80.41
2022-11-07T16:49:33.665Z,80.17
2022-11-07T16:52:00.396Z,80.70
2022-11-07T16:54:27.002Z,80.66
